Weather at Ak-Chin Regional Airport

Public forecast

Using degrees Fahrenheit for public forecast. Weather courtesy of forecast.io.

Closest aviation weather report (METAR) to Ak-Chin Regional Airport

Closest report is Casa Grande Municipal Airport, 7.9 nm (14.7 km) ESE. Retrieved 2021/07/23 13:56 UTC (1 hour ago):

KCGZ 231356Z AUTO 12009KT 10SM -RA BKN075 OVC100 23/21 A3007 RMK AO2 TSE22 SLP168 P0003 T02280211

Closest aviation forecast (TAF) to Ak-Chin Regional Airport

Closest forecast is Phoenix-Mesa-Gateway Airport, 23.2 nm (42.9 km) NE. Retrieved 2021/07/23 12:22 UTC (3 hours ago):

TAF KIWA 231120Z 2312/2412 13011KT P6SM VCSH SCT070 BKN100 OVC150 TEMPO 2313/2314 5SM -TSRA BR BKN070CB OVC120 FM231500 12007KT P6SM SCT070 BKN120 OVC200 FM232300 17012KT P6SM VCTS SCT070CB BKN100 BKN150 TEMPO 2323/2401 05012KT 2SM TSRA BR OVC060CB FM240100 14008KT P6SM VCSH SCT060 BKN100 OVC150 FM240300 12007KT P6SM SCT070 BKN120 BKN150 FM241000 08010KT P6SM -SHRA VCTS BKN070CB OVC100 PROB30 2411/2412 2SM TSRA BR OVC060CB